createdAt,value
2022-10-30T00:00:14.960Z,14.05
2022-10-30T00:02:42.623Z,14.03
2022-10-30T00:05:10.518Z,14.01
2022-10-30T00:07:38.133Z,13.97
2022-10-30T00:10:08.235Z,13.98
2022-10-30T00:12:35.857Z,13.94
2022-10-30T00:15:03.599Z,13.93
2022-10-30T00:17:31.216Z,13.88
2022-10-30T00:19:58.882Z,13.84
2022-10-30T00:22:26.762Z,13.82
2022-10-30T00:24:54.350Z,13.80
2022-10-30T00:27:23.270Z,13.75
2022-10-30T00:29:51.010Z,13.75
2022-10-30T00:32:18.554Z,13.74
2022-10-30T00:34:46.080Z,13.69
2022-10-30T00:37:13.674Z,13.63
2022-10-30T00:39:41.278Z,13.59
2022-10-30T00:42:13.195Z,13.58
2022-10-30T00:44:47.997Z,13.60
2022-10-30T00:47:20.819Z,13.61
2022-10-30T00:49:54.655Z,13.61
2022-10-30T00:52:25.726Z,13.62
2022-10-30T00:54:54.749Z,13.63
2022-10-30T00:57:22.506Z,13.63
2022-10-30T00:59:51.720Z,13.66
2022-10-30T01:02:21.930Z,13.65
2022-10-30T01:04:51.903Z,13.63
2022-10-30T01:07:19.451Z,13.62
2022-10-30T01:09:48.381Z,13.59
2022-10-30T01:12:16.664Z,13.60
2022-10-30T01:14:47.330Z,13.58
2022-10-30T01:17:31.224Z,13.56
2022-10-30T01:20:12.079Z,13.55
2022-10-30T01:22:52.776Z,13.52
2022-10-30T01:25:37.562Z,13.53
2022-10-30T01:28:18.599Z,13.47
2022-10-30T01:30:58.745Z,13.47
2022-10-30T01:33:29.639Z,13.45
2022-10-30T01:36:06.207Z,13.44
2022-10-30T01:38:40.482Z,13.41
2022-10-30T01:41:08.867Z,13.41
2022-10-30T01:43:38.411Z,13.40
2022-10-30T01:46:32.711Z,13.41
2022-10-30T01:49:14.969Z,13.40
2022-10-30T01:51:55.839Z,13.39
2022-10-30T01:54:33.728Z,13.38
2022-10-30T01:57:12.118Z,13.37
2022-10-30T01:59:47.037Z,13.36
2022-10-30T02:02:15.316Z,13.38
2022-10-30T02:04:43.798Z,13.36
2022-10-30T02:07:13.444Z,13.36
2022-10-30T02:09:52.097Z,13.35
2022-10-30T02:12:20.215Z,13.30
2022-10-30T02:14:51.316Z,13.27
2022-10-30T02:17:19.850Z,13.25
2022-10-30T02:19:50.674Z,13.25
2022-10-30T02:22:19.814Z,13.21
2022-10-30T02:24:47.923Z,13.17
2022-10-30T02:27:15.710Z,13.16
2022-10-30T02:29:43.311Z,13.10
2022-10-30T02:32:11.280Z,13.02
2022-10-30T02:34:38.806Z,12.95
2022-10-30T02:37:06.343Z,12.91
2022-10-30T02:39:35.244Z,12.75
2022-10-30T02:42:05.682Z,12.77
2022-10-30T02:44:33.274Z,12.74
2022-10-30T02:47:00.994Z,12.71
2022-10-30T02:49:28.799Z,12.68
2022-10-30T02:51:56.335Z,12.65
2022-10-30T02:54:24.417Z,12.63
2022-10-30T02:56:53.895Z,12.63
2022-10-30T02:59:22.528Z,12.64
2022-10-30T03:01:51.479Z,12.59
2022-10-30T03:04:19.203Z,12.58
2022-10-30T03:06:46.745Z,12.56
2022-10-30T03:09:14.354Z,12.52
2022-10-30T03:11:44.259Z,12.48
2022-10-30T03:14:13.258Z,12.49
2022-10-30T03:16:40.887Z,12.46
2022-10-30T03:19:08.422Z,12.43
2022-10-30T03:21:35.998Z,12.42
2022-10-30T03:24:03.537Z,12.36
2022-10-30T03:26:31.059Z,12.33
2022-10-30T03:29:05.268Z,12.32
2022-10-30T03:31:34.976Z,12.30
2022-10-30T03:34:13.994Z,12.31
2022-10-30T03:36:42.650Z,12.29
2022-10-30T03:39:10.371Z,12.26
2022-10-30T03:41:38.794Z,12.24
2022-10-30T03:44:06.392Z,12.20
2022-10-30T03:46:35.781Z,12.16
2022-10-30T03:49:16.953Z,12.12
2022-10-30T03:51:44.509Z,12.08
2022-10-30T03:54:12.107Z,12.07
2022-10-30T03:56:39.759Z,12.03
2022-10-30T03:59:10.292Z,12.01
2022-10-30T04:01:41.601Z,12.01
2022-10-30T04:04:09.639Z,11.96
2022-10-30T04:06:37.274Z,11.97
2022-10-30T04:09:05.477Z,11.93
2022-10-30T04:11:38.009Z,11.92
2022-10-30T04:14:05.729Z,11.91
2022-10-30T04:16:33.777Z,11.86
2022-10-30T04:19:03.846Z,11.82
2022-10-30T04:21:31.425Z,11.80
2022-10-30T04:23:58.962Z,11.74
2022-10-30T04:26:29.619Z,11.73
2022-10-30T04:28:57.726Z,11.72
2022-10-30T04:31:25.451Z,11.69
2022-10-30T04:33:53.106Z,11.66
2022-10-30T04:36:29.859Z,11.63
2022-10-30T04:38:57.756Z,11.60
2022-10-30T04:41:29.104Z,11.56
2022-10-30T04:44:03.373Z,11.54
2022-10-30T04:46:33.000Z,11.51
2022-10-30T04:49:08.073Z,11.50
2022-10-30T04:51:37.301Z,11.46
2022-10-30T04:54:06.748Z,11.42
2022-10-30T04:56:35.700Z,11.37
2022-10-30T04:59:04.530Z,11.37
2022-10-30T05:01:32.200Z,11.34
2022-10-30T05:04:00.052Z,11.30
2022-10-30T05:06:31.053Z,11.27
2022-10-30T05:09:00.221Z,11.26
2022-10-30T05:11:35.428Z,11.24
2022-10-30T05:14:03.163Z,11.22
2022-10-30T05:16:30.711Z,11.22
2022-10-30T05:19:00.379Z,11.20
2022-10-30T05:21:28.926Z,11.20
2022-10-30T05:23:56.475Z,11.18
2022-10-30T05:26:26.458Z,11.17
2022-10-30T05:28:54.444Z,11.12
2022-10-30T05:31:22.033Z,11.10
2022-10-30T05:34:18.358Z,11.09
2022-10-30T05:36:48.921Z,11.06
2022-10-30T05:39:17.333Z,11.02
2022-10-30T05:41:49.659Z,10.94
2022-10-30T05:44:34.182Z,10.94
2022-10-30T05:47:07.097Z,10.94
2022-10-30T05:49:36.166Z,10.95
2022-10-30T05:52:07.127Z,10.93
2022-10-30T05:54:34.688Z,10.93
2022-10-30T05:57:30.760Z,10.91
2022-10-30T05:59:58.315Z,10.98
2022-10-30T06:02:26.265Z,11.07
2022-10-30T06:04:53.912Z,11.05
2022-10-30T06:07:22.101Z,11.09
2022-10-30T06:09:49.717Z,11.06
2022-10-30T06:12:36.954Z,11.03
2022-10-30T06:15:13.270Z,11.02
2022-10-30T06:17:40.832Z,11.03
2022-10-30T06:20:26.044Z,11.02
2022-10-30T06:23:19.281Z,11.00
2022-10-30T06:25:54.102Z,11.00
2022-10-30T06:28:43.286Z,11.02
2022-10-30T06:31:12.884Z,11.07
2022-10-30T06:33:40.586Z,11.18
2022-10-30T06:36:08.852Z,11.38
2022-10-30T06:38:37.697Z,11.39
2022-10-30T06:41:05.490Z,11.36
2022-10-30T06:43:53.088Z,11.32
2022-10-30T06:46:26.997Z,11.32
2022-10-30T06:48:58.558Z,11.30
2022-10-30T06:51:27.190Z,11.26
2022-10-30T06:53:55.502Z,11.21
2022-10-30T06:56:41.035Z,11.18
2022-10-30T06:59:38.075Z,11.09
2022-10-30T07:02:25.157Z,11.01
2022-10-30T07:04:57.330Z,10.99
2022-10-30T07:07:25.029Z,11.03
2022-10-30T07:09:52.968Z,11.13
2022-10-30T07:12:26.250Z,11.15
2022-10-30T07:15:13.327Z,11.18
2022-10-30T07:17:55.013Z,11.21
2022-10-30T07:20:24.741Z,11.28
2022-10-30T07:22:52.875Z,11.31
2022-10-30T07:25:20.854Z,11.35
2022-10-30T07:27:58.161Z,11.45
2022-10-30T07:30:35.020Z,11.53
2022-10-30T07:33:37.960Z,11.63
2022-10-30T07:36:16.273Z,11.70
2022-10-30T07:38:52.166Z,11.80
2022-10-30T07:41:30.959Z,11.87
2022-10-30T07:44:33.788Z,11.96
2022-10-30T07:47:16.127Z,12.05
2022-10-30T07:49:55.521Z,12.13
2022-10-30T07:52:23.126Z,12.73
2022-10-30T07:54:52.749Z,12.98
2022-10-30T07:57:39.414Z,13.28
2022-10-30T08:00:36.223Z,13.53
2022-10-30T08:03:18.543Z,13.79
2022-10-30T08:06:05.988Z,14.08
2022-10-30T08:08:40.353Z,14.29
2022-10-30T08:11:22.705Z,14.71
2022-10-30T08:13:50.400Z,14.67
2022-10-30T08:16:18.845Z,14.81
2022-10-30T08:18:47.748Z,14.89
2022-10-30T08:21:15.320Z,14.94
2022-10-30T08:23:54.630Z,14.98
2022-10-30T08:26:23.019Z,14.96
2022-10-30T08:28:50.703Z,15.05
2022-10-30T08:31:18.427Z,15.19
2022-10-30T08:34:15.998Z,15.26
2022-10-30T08:36:55.275Z,15.41
2022-10-30T08:39:23.611Z,15.60
2022-10-30T08:42:00.918Z,15.72
2022-10-30T08:44:34.925Z,16.01
2022-10-30T08:47:20.956Z,16.29
2022-10-30T08:49:49.948Z,16.42
2022-10-30T08:52:21.369Z,16.50
2022-10-30T08:54:55.251Z,16.52
2022-10-30T08:57:25.221Z,16.54
2022-10-30T08:59:56.343Z,16.63
2022-10-30T09:02:45.316Z,16.74
2022-10-30T09:05:46.723Z,16.94
2022-10-30T09:08:32.858Z,17.10
2022-10-30T09:11:12.961Z,17.18
2022-10-30T09:13:41.016Z,17.25
2022-10-30T09:16:09.382Z,17.40
2022-10-30T09:18:39.109Z,17.56
2022-10-30T09:21:08.080Z,17.74
2022-10-30T09:23:43.756Z,17.98
2022-10-30T09:26:30.383Z,18.20
2022-10-30T09:29:20.807Z,18.46
2022-10-30T09:31:57.093Z,18.63
2022-10-30T09:37:01.987Z,19.13
2022-10-30T09:39:31.978Z,19.31
2022-10-30T09:42:19.857Z,19.45
2022-10-30T09:48:24.725Z,20.10
2022-10-30T09:51:10.676Z,20.12
2022-10-30T09:53:50.864Z,20.36
2022-10-30T09:56:32.780Z,20.54
2022-10-30T09:59:10.992Z,20.78
2022-10-30T10:01:48.893Z,21.11
2022-10-30T10:04:26.745Z,21.34
2022-10-30T10:07:20.813Z,21.48
2022-10-30T10:10:11.835Z,21.58
2022-10-30T10:12:52.471Z,21.81
2022-10-30T10:15:35.504Z,21.86
2022-10-30T10:18:06.058Z,21.98
2022-10-30T10:20:37.980Z,22.12
2022-10-30T10:23:17.065Z,22.13
2022-10-30T10:25:53.359Z,22.35
2022-10-30T10:28:43.426Z,22.64
2022-10-30T10:31:25.395Z,22.87
2022-10-30T10:34:09.905Z,23.04
2022-10-30T10:36:47.035Z,23.09
2022-10-30T10:39:29.026Z,23.18
2022-10-30T10:42:09.954Z,23.04
2022-10-30T10:44:48.637Z,23.11
2022-10-30T10:47:41.579Z,23.36
2022-10-30T10:50:20.704Z,23.35
2022-10-30T10:52:53.884Z,23.38
2022-10-30T10:55:25.819Z,23.41
2022-10-30T10:57:59.539Z,23.45
2022-10-30T11:00:30.287Z,23.47
2022-10-30T11:03:04.711Z,23.55
2022-10-30T11:05:36.139Z,23.87
2022-10-30T11:08:13.097Z,24.09
2022-10-30T11:10:40.766Z,24.14
2022-10-30T11:13:12.512Z,24.45
2022-10-30T11:15:51.271Z,24.96
2022-10-30T11:18:18.853Z,25.43
2022-10-30T11:20:57.951Z,25.62
2022-10-30T11:23:33.406Z,25.65
2022-10-30T11:26:02.230Z,25.96
2022-10-30T11:28:37.445Z,26.21
2022-10-30T11:31:19.514Z,26.48
2022-10-30T11:33:47.140Z,26.59
2022-10-30T11:36:16.979Z,26.88
2022-10-30T11:38:44.616Z,26.80
2022-10-30T11:41:13.221Z,26.89
2022-10-30T11:43:43.931Z,26.87
2022-10-30T11:46:22.560Z,26.89
2022-10-30T11:48:54.770Z,26.94
2022-10-30T11:51:35.604Z,26.76
2022-10-30T11:54:04.393Z,26.90
2022-10-30T11:56:33.063Z,26.87
2022-10-30T11:59:04.360Z,26.76
2022-10-30T12:01:35.507Z,26.91
2022-10-30T12:04:23.196Z,27.01
2022-10-30T12:06:54.990Z,26.74
2022-10-30T12:09:23.672Z,26.92
2022-10-30T12:11:51.446Z,27.03
2022-10-30T12:14:23.023Z,27.35
2022-10-30T12:16:52.978Z,27.54
2022-10-30T12:19:23.234Z,27.73
2022-10-30T12:21:53.454Z,27.81
2022-10-30T12:24:31.683Z,27.73
2022-10-30T12:27:03.706Z,27.69
2022-10-30T12:32:39.945Z,27.60
2022-10-30T12:35:19.447Z,27.59
2022-10-30T12:37:50.236Z,27.80
2022-10-30T12:40:22.289Z,27.67
2022-10-30T12:42:55.153Z,27.63
2022-10-30T12:45:31.641Z,27.73
2022-10-30T12:48:04.633Z,27.66
2022-10-30T12:50:40.438Z,27.88
2022-10-30T12:53:16.679Z,27.94
2022-10-30T12:55:49.654Z,28.21
2022-10-30T12:58:26.304Z,28.34
2022-10-30T13:00:59.606Z,28.15
2022-10-30T13:03:31.093Z,28.23
2022-10-30T13:06:03.300Z,28.36
2022-10-30T13:08:35.483Z,28.26
2022-10-30T13:11:08.184Z,28.69
2022-10-30T13:13:39.867Z,28.83
2022-10-30T13:16:15.131Z,28.42
2022-10-30T13:18:42.736Z,28.45
2022-10-30T13:21:23.455Z,28.50
2022-10-30T13:23:55.781Z,28.73
2022-10-30T13:26:45.064Z,29.20
2022-10-30T13:29:23.522Z,29.08
2022-10-30T13:32:02.643Z,29.23
2022-10-30T13:34:40.972Z,29.00
2022-10-30T13:37:13.817Z,29.16
2022-10-30T13:39:47.001Z,29.05
2022-10-30T13:42:37.782Z,28.93
2022-10-30T13:45:25.886Z,29.02
2022-10-30T13:48:05.327Z,28.82
2022-10-30T13:50:48.565Z,28.86
2022-10-30T13:53:20.613Z,28.49
2022-10-30T13:55:49.928Z,28.59
2022-10-30T13:58:24.155Z,28.51
2022-10-30T14:01:00.969Z,28.75
2022-10-30T14:03:43.625Z,28.86
2022-10-30T14:06:16.493Z,28.67
2022-10-30T14:08:53.654Z,28.82
2022-10-30T14:11:21.462Z,28.60
2022-10-30T14:13:56.110Z,28.29
2022-10-30T14:16:41.201Z,28.24
2022-10-30T14:19:10.975Z,27.89
2022-10-30T14:21:54.929Z,27.79
2022-10-30T14:27:11.696Z,27.93
2022-10-30T14:29:45.386Z,27.92
2022-10-30T14:32:39.123Z,27.68
2022-10-30T14:35:36.083Z,27.69
2022-10-30T14:38:27.708Z,27.33
2022-10-30T14:41:20.418Z,27.17
2022-10-30T14:44:07.477Z,27.18
2022-10-30T14:46:43.161Z,26.95
2022-10-30T14:49:29.420Z,26.71
2022-10-30T14:52:12.587Z,26.56
2022-10-30T14:54:46.225Z,26.68
2022-10-30T14:57:22.178Z,26.46
2022-10-30T14:59:49.933Z,26.24
2022-10-30T15:02:31.359Z,26.22
2022-10-30T15:05:35.142Z,25.92
2022-10-30T15:08:15.397Z,25.52
2022-10-30T15:10:52.495Z,25.20
2022-10-30T15:13:22.344Z,24.88
2022-10-30T15:15:59.115Z,24.62
2022-10-30T15:18:30.555Z,24.48
2022-10-30T15:21:05.055Z,24.41
2022-10-30T15:23:36.635Z,24.11
2022-10-30T15:26:09.972Z,23.86
2022-10-30T15:28:39.691Z,23.62
2022-10-30T15:31:08.946Z,23.46
2022-10-30T15:33:37.623Z,23.23
2022-10-30T15:36:05.869Z,23.16
2022-10-30T15:38:34.774Z,22.96
2022-10-30T15:41:03.927Z,22.64
2022-10-30T15:43:34.912Z,22.37
2022-10-30T15:46:09.452Z,22.05
2022-10-30T15:48:40.224Z,21.74
2022-10-30T15:51:09.359Z,21.63
2022-10-30T15:53:44.614Z,21.34
2022-10-30T15:56:20.111Z,21.01
2022-10-30T15:58:50.908Z,20.84
2022-10-30T16:01:26.338Z,20.66
2022-10-30T16:03:55.039Z,20.46
2022-10-30T16:06:27.026Z,20.23
2022-10-30T16:08:56.434Z,20.02
2022-10-30T16:11:25.355Z,19.76
2022-10-30T16:13:53.521Z,19.54
2022-10-30T16:16:25.743Z,19.43
2022-10-30T16:18:54.252Z,19.36
2022-10-30T16:21:24.531Z,19.24
2022-10-30T16:23:54.041Z,19.08
2022-10-30T16:26:32.714Z,18.89
2022-10-30T16:29:03.791Z,18.75
2022-10-30T16:31:35.456Z,18.62
2022-10-30T16:34:04.471Z,18.55
2022-10-30T16:36:32.614Z,18.44
2022-10-30T16:39:00.522Z,18.33
2022-10-30T16:41:32.164Z,18.24
2022-10-30T16:44:15.246Z,18.07
2022-10-30T16:46:49.202Z,17.93
2022-10-30T16:49:19.895Z,17.76
2022-10-30T16:51:48.683Z,17.60
2022-10-30T16:54:20.785Z,17.46
2022-10-30T16:56:53.796Z,17.32
2022-10-30T16:59:28.231Z,17.22
2022-10-30T17:02:00.677Z,17.11
2022-10-30T17:04:30.312Z,16.99
2022-10-30T17:07:06.737Z,16.93
2022-10-30T17:09:38.442Z,16.92
2022-10-30T17:12:13.764Z,16.80
2022-10-30T17:14:48.838Z,16.78
2022-10-30T17:17:32.135Z,16.70
2022-10-30T17:22:44.771Z,16.60
2022-10-30T17:25:18.636Z,16.56
2022-10-30T17:27:51.386Z,16.52
2022-10-30T17:30:37.855Z,16.49
2022-10-30T17:33:24.671Z,16.45
2022-10-30T17:38:25.090Z,16.32
2022-10-30T17:40:52.757Z,16.28
2022-10-30T17:43:23.930Z,16.27
2022-10-30T17:45:51.476Z,16.22
2022-10-30T17:48:19.336Z,16.18
2022-10-30T17:50:46.915Z,16.13
2022-10-30T17:53:18.333Z,16.09
2022-10-30T17:55:51.641Z,16.01
2022-10-30T17:58:23.279Z,15.98
2022-10-30T18:00:50.904Z,15.97
2022-10-30T18:03:18.536Z,15.91
2022-10-30T18:05:47.160Z,15.86
2022-10-30T18:08:14.748Z,15.77
2022-10-30T18:10:42.251Z,15.74
2022-10-30T18:13:10.879Z,15.72
2022-10-30T18:15:43.598Z,15.68
2022-10-30T18:18:11.136Z,15.70
2022-10-30T18:20:38.740Z,15.67
2022-10-30T18:23:31.634Z,15.67
2022-10-30T18:26:00.522Z,15.64
2022-10-30T18:28:28.095Z,15.58
2022-10-30T18:30:59.389Z,15.55
2022-10-30T18:33:26.932Z,15.56
2022-10-30T18:35:54.973Z,15.53
2022-10-30T18:38:22.508Z,15.51
2022-10-30T18:40:50.718Z,15.47
2022-10-30T18:43:18.557Z,15.41
2022-10-30T18:45:46.104Z,15.35
2022-10-30T18:48:14.994Z,15.32
2022-10-30T18:50:42.974Z,15.29
2022-10-30T18:53:16.806Z,15.25
2022-10-30T18:55:45.296Z,15.22
2022-10-30T18:58:13.073Z,15.22
2022-10-30T19:01:06.329Z,15.18
2022-10-30T19:03:30.286Z,15.12
2022-10-30T19:05:57.809Z,15.06
2022-10-30T19:08:25.368Z,14.97
2022-10-30T19:10:56.570Z,14.96
2022-10-30T19:13:24.211Z,14.92
2022-10-30T19:15:59.853Z,14.86
2022-10-30T19:18:28.436Z,14.83
2022-10-30T19:21:04.528Z,14.80
2022-10-30T19:23:33.720Z,14.78
2022-10-30T19:26:01.286Z,14.74
2022-10-30T19:28:30.651Z,14.74
2022-10-30T19:30:58.221Z,14.69
2022-10-30T19:33:26.209Z,14.68
2022-10-30T19:35:54.698Z,14.66
2022-10-30T19:38:23.928Z,14.60
2022-10-30T19:40:52.144Z,14.57
2022-10-30T19:43:19.900Z,14.53
2022-10-30T19:45:51.298Z,14.49
2022-10-30T19:48:34.536Z,14.47
2022-10-30T19:51:11.480Z,14.45
2022-10-30T19:53:41.255Z,14.41
2022-10-30T19:56:11.360Z,14.38
2022-10-30T19:58:38.883Z,14.32
2022-10-30T20:01:06.810Z,14.27
2022-10-30T20:03:34.426Z,14.25
2022-10-30T20:06:02.002Z,14.21
2022-10-30T20:08:29.649Z,14.17
2022-10-30T20:10:59.639Z,14.18
2022-10-30T20:13:28.105Z,14.17
2022-10-30T20:15:57.181Z,14.13
2022-10-30T20:18:27.398Z,14.08
2022-10-30T20:20:56.218Z,14.05
2022-10-30T20:23:25.229Z,14.03
2022-10-30T20:25:55.127Z,13.99
2022-10-30T20:28:26.848Z,13.95
2022-10-30T20:30:55.326Z,13.90
2022-10-30T20:33:24.369Z,13.87
2022-10-30T20:35:52.733Z,13.83
2022-10-30T20:38:22.061Z,13.82
2022-10-30T20:40:50.431Z,13.78
2022-10-30T20:43:20.107Z,13.77
2022-10-30T20:45:49.202Z,13.75
2022-10-30T20:48:16.801Z,13.72
2022-10-30T20:50:49.139Z,13.70
2022-10-30T20:53:18.220Z,13.70
2022-10-30T20:55:46.314Z,13.67
2022-10-30T20:58:14.046Z,13.77
2022-10-30T21:00:41.995Z,13.73
2022-10-30T21:03:14.204Z,13.77
2022-10-30T21:05:44.742Z,13.77
2022-10-30T21:08:13.299Z,13.72
2022-10-30T21:10:41.228Z,13.70
2022-10-30T21:13:09.675Z,13.64
2022-10-30T21:15:39.346Z,13.60
2022-10-30T21:18:08.447Z,13.58
2022-10-30T21:20:38.258Z,13.53
2022-10-30T21:23:06.499Z,13.51
2022-10-30T21:25:34.098Z,13.47
2022-10-30T21:28:01.763Z,13.50
2022-10-30T21:30:29.719Z,13.42
2022-10-30T21:32:57.606Z,13.41
2022-10-30T21:35:25.334Z,13.39
2022-10-30T21:37:54.298Z,13.37
2022-10-30T21:40:21.938Z,13.34
2022-10-30T21:42:49.553Z,13.22
2022-10-30T21:45:17.674Z,13.21
2022-10-30T21:47:45.207Z,13.17
2022-10-30T21:50:13.147Z,13.13
2022-10-30T21:52:40.972Z,13.11
2022-10-30T21:55:10.367Z,13.10
2022-10-30T21:57:37.933Z,13.07
2022-10-30T22:00:07.449Z,13.03
2022-10-30T22:02:35.994Z,13.02
2022-10-30T22:05:03.566Z,12.99
2022-10-30T22:07:31.167Z,12.98
2022-10-30T22:09:58.958Z,12.95
2022-10-30T22:12:27.830Z,12.90
2022-10-30T22:14:55.495Z,12.89
2022-10-30T22:17:23.026Z,12.86
2022-10-30T22:19:50.616Z,12.78
2022-10-30T22:22:18.120Z,12.74
2022-10-30T22:24:45.882Z,12.75
2022-10-30T22:27:13.444Z,12.70
2022-10-30T22:29:42.330Z,12.66
2022-10-30T22:32:09.868Z,12.62
2022-10-30T22:34:37.402Z,12.58
2022-10-30T22:37:04.969Z,12.53
2022-10-30T22:39:32.608Z,12.54
2022-10-30T22:42:00.111Z,12.52
2022-10-30T22:44:28.537Z,12.49
2022-10-30T22:46:57.372Z,12.45
2022-10-30T22:49:24.909Z,12.41
2022-10-30T22:51:52.528Z,12.39
2022-10-30T22:54:20.046Z,12.35
2022-10-30T22:56:47.620Z,12.31
2022-10-30T22:59:15.437Z,12.28
2022-10-30T23:01:43.817Z,12.26
2022-10-30T23:04:15.037Z,12.23
2022-10-30T23:06:42.942Z,12.19
2022-10-30T23:09:15.961Z,12.17
2022-10-30T23:11:43.753Z,12.14
2022-10-30T23:14:11.241Z,12.16
2022-10-30T23:16:38.775Z,12.10
2022-10-30T23:19:06.337Z,12.08
2022-10-30T23:21:35.207Z,12.08
2022-10-30T23:24:03.820Z,12.02
2022-10-30T23:26:33.204Z,12.00
2022-10-30T23:29:01.747Z,11.96
2022-10-30T23:31:32.259Z,11.92
2022-10-30T23:34:01.746Z,11.92
2022-10-30T23:36:29.576Z,11.87
2022-10-30T23:39:00.556Z,11.88
2022-10-30T23:41:30.253Z,11.87
2022-10-30T23:43:59.297Z,11.83
2022-10-30T23:46:27.894Z,11.83
2022-10-30T23:48:56.120Z,11.83
2022-10-30T23:51:24.247Z,11.83
2022-10-30T23:53:52.092Z,11.82
2022-10-30T23:56:21.413Z,11.80
2022-10-30T23:58:50.673Z,11.79
